createdAt,value
2023-04-13T00:00:35.180Z,2.70
2023-04-13T00:03:04.224Z,2.27
2023-04-13T00:05:34.485Z,2.47
2023-04-13T00:08:03.424Z,2.63
2023-04-13T00:10:36.094Z,2.00
2023-04-13T00:13:06.083Z,2.13
2023-04-13T00:15:34.804Z,2.23
2023-04-13T00:18:03.117Z,2.10
2023-04-13T00:20:31.613Z,1.90
2023-04-13T00:22:59.822Z,2.10
2023-04-13T00:25:29.226Z,2.33
2023-04-13T00:27:57.594Z,2.80
2023-04-13T00:30:27.219Z,2.70
2023-04-13T00:32:55.540Z,2.27
2023-04-13T00:35:25.331Z,1.40
2023-04-13T00:37:54.132Z,1.17
2023-04-13T00:40:22.391Z,0.90
2023-04-13T00:42:51.852Z,0.73
2023-04-13T00:45:21.000Z,1.00
2023-04-13T00:47:51.969Z,1.43
2023-04-13T00:50:21.341Z,1.23
2023-04-13T00:52:49.941Z,1.00
2023-04-13T00:55:21.513Z,1.33
2023-04-13T00:57:52.443Z,1.43
2023-04-13T01:00:21.656Z,1.40
2023-04-13T01:02:52.832Z,1.40
2023-04-13T01:05:21.464Z,1.90
2023-04-13T01:07:55.476Z,1.70
2023-04-13T01:10:27.629Z,1.10
2023-04-13T01:13:00.677Z,1.50
2023-04-13T01:15:30.148Z,1.17
2023-04-13T01:18:05.279Z,0.97
2023-04-13T01:20:34.812Z,1.20
2023-04-13T01:23:04.072Z,1.20
2023-04-13T01:25:35.152Z,1.83
2023-04-13T01:28:07.601Z,1.57
2023-04-13T01:30:37.238Z,1.73
2023-04-13T01:33:05.874Z,1.63
2023-04-13T01:35:34.360Z,2.43
2023-04-13T01:38:02.712Z,2.03
2023-04-13T01:40:32.782Z,1.40
2023-04-13T01:43:01.083Z,1.60
2023-04-13T01:45:31.552Z,1.47
2023-04-13T01:48:02.739Z,1.70
2023-04-13T01:50:31.673Z,1.43
2023-04-13T01:53:01.983Z,1.53
2023-04-13T01:55:30.998Z,1.50
2023-04-13T01:58:01.902Z,1.47
2023-04-13T02:00:36.244Z,1.27
2023-04-13T02:03:06.344Z,1.20
2023-04-13T02:05:36.841Z,1.83
2023-04-13T02:08:06.885Z,1.20
2023-04-13T02:10:35.881Z,1.33
2023-04-13T02:13:05.073Z,1.67
2023-04-13T02:15:35.865Z,1.50
2023-04-13T02:18:04.805Z,1.50
2023-04-13T02:20:38.636Z,1.30
2023-04-13T02:23:08.180Z,1.47
2023-04-13T02:25:36.695Z,1.07
2023-04-13T02:28:05.205Z,1.20
2023-04-13T02:30:35.036Z,1.47
2023-04-13T02:33:03.289Z,1.33
2023-04-13T02:35:31.613Z,1.17
2023-04-13T02:38:00.129Z,1.20
2023-04-13T02:40:29.286Z,1.33
2023-04-13T02:42:59.858Z,1.13
2023-04-13T02:45:28.412Z,1.37
2023-04-13T02:47:58.656Z,1.73
2023-04-13T02:50:27.957Z,1.60
2023-04-13T02:52:56.299Z,1.33
2023-04-13T02:55:24.509Z,1.30
2023-04-13T02:57:52.783Z,1.33
2023-04-13T03:00:21.615Z,1.87
2023-04-13T03:02:49.967Z,1.30
2023-04-13T03:05:20.080Z,1.97
2023-04-13T03:07:49.104Z,1.60
2023-04-13T03:10:19.016Z,1.70
2023-04-13T03:12:47.732Z,1.60
2023-04-13T03:15:16.519Z,1.80
2023-04-13T03:17:44.838Z,1.77
2023-04-13T03:20:16.138Z,1.43
2023-04-13T03:22:46.140Z,1.63
2023-04-13T03:25:14.388Z,1.83
2023-04-13T03:27:42.843Z,2.27
2023-04-13T03:30:11.848Z,1.60
2023-04-13T03:32:40.174Z,1.53
2023-04-13T03:35:08.691Z,1.60
2023-04-13T03:37:42.704Z,1.40
2023-04-13T03:40:12.986Z,1.83
2023-04-13T03:42:41.492Z,1.50
2023-04-13T03:45:10.549Z,1.40
2023-04-13T03:47:38.960Z,1.23
2023-04-13T03:50:07.911Z,1.43
2023-04-13T03:52:36.534Z,1.50
2023-04-13T03:55:04.992Z,1.27
2023-04-13T03:57:35.225Z,1.30
2023-04-13T04:00:03.778Z,1.30
2023-04-13T04:02:32.073Z,1.23
2023-04-13T04:05:00.880Z,1.33
2023-04-13T04:07:29.202Z,1.20
2023-04-13T04:09:57.460Z,1.33
2023-04-13T04:12:25.810Z,1.23
2023-04-13T04:14:55.513Z,1.50
2023-04-13T04:17:23.806Z,1.30
2023-04-13T04:19:52.297Z,1.47
2023-04-13T04:22:20.689Z,1.40
2023-04-13T04:24:49.882Z,1.47
2023-04-13T04:27:18.315Z,1.93
2023-04-13T04:29:49.405Z,1.20
2023-04-13T04:32:19.828Z,1.00
2023-04-13T04:34:52.786Z,1.47
2023-04-13T04:37:22.231Z,1.10
2023-04-13T04:39:50.552Z,0.90
2023-04-13T04:42:19.612Z,0.93
2023-04-13T04:44:49.994Z,0.90
2023-04-13T04:47:19.954Z,1.37
2023-04-13T04:49:48.315Z,1.87
2023-04-13T04:52:16.555Z,1.23
2023-04-13T04:54:44.800Z,1.30
2023-04-13T04:57:14.577Z,1.80
2023-04-13T04:59:42.826Z,1.47
2023-04-13T05:02:11.174Z,1.50
2023-04-13T05:04:41.934Z,1.70
2023-04-13T05:07:10.705Z,1.67
2023-04-13T05:09:39.198Z,1.90
2023-04-13T05:12:07.717Z,1.33
2023-04-13T05:14:35.960Z,1.73
2023-04-13T05:17:04.379Z,1.83
2023-04-13T05:19:34.867Z,2.03
2023-04-13T05:22:05.467Z,2.70
2023-04-13T05:24:33.821Z,2.13
2023-04-13T05:27:02.196Z,2.43
2023-04-13T05:29:30.514Z,2.43
2023-04-13T05:32:00.502Z,3.30
2023-04-13T05:34:28.821Z,3.03
2023-04-13T05:36:57.951Z,3.70
2023-04-13T05:39:27.648Z,5.87
2023-04-13T05:41:55.973Z,4.10
2023-04-13T05:44:24.215Z,2.70
2023-04-13T05:46:52.467Z,2.90
2023-04-13T05:49:20.755Z,1.60
2023-04-13T05:51:49.007Z,2.03
2023-04-13T05:54:17.422Z,3.27
2023-04-13T05:56:47.230Z,2.60
2023-04-13T05:59:16.264Z,3.10
2023-04-13T06:01:44.695Z,2.43
2023-04-13T06:04:14.432Z,2.50
2023-04-13T06:06:43.031Z,3.33
2023-04-13T06:09:11.296Z,2.47
2023-04-13T06:11:39.571Z,2.50
2023-04-13T06:14:09.202Z,2.23
2023-04-13T06:16:37.429Z,2.50
2023-04-13T06:19:05.780Z,2.87
2023-04-13T06:21:33.986Z,3.10
2023-04-13T06:24:02.269Z,3.63
2023-04-13T06:26:30.654Z,3.33
2023-04-13T06:28:59.187Z,3.43
2023-04-13T06:31:29.066Z,2.10
2023-04-13T06:33:57.274Z,2.27
2023-04-13T06:36:25.685Z,2.03
2023-04-13T06:38:54.330Z,2.50
2023-04-13T06:41:22.567Z,2.57
2023-04-13T06:43:50.958Z,1.83
2023-04-13T06:46:20.066Z,1.80
2023-04-13T06:48:49.867Z,5.17
2023-04-13T06:51:18.149Z,3.03
2023-04-13T06:53:46.344Z,2.40
2023-04-13T06:56:14.600Z,2.93
2023-04-13T06:58:42.850Z,2.00
2023-04-13T07:01:12.454Z,2.60
2023-04-13T07:03:41.146Z,2.30
2023-04-13T07:06:11.613Z,2.30
2023-04-13T07:08:39.803Z,2.23
2023-04-13T07:11:08.304Z,2.60
2023-04-13T07:13:36.527Z,1.70
2023-04-13T07:16:04.928Z,2.10
2023-04-13T07:18:33.257Z,2.33
2023-04-13T07:21:01.738Z,1.73
2023-04-13T07:23:31.677Z,2.73
2023-04-13T07:25:59.977Z,1.87
2023-04-13T07:28:28.235Z,2.57
2023-04-13T07:30:56.719Z,2.53
2023-04-13T07:33:25.010Z,2.50
2023-04-13T07:35:55.528Z,2.03
2023-04-13T07:38:23.857Z,2.13
2023-04-13T07:40:53.495Z,1.90
2023-04-13T07:43:21.761Z,2.40
2023-04-13T07:45:50.031Z,1.87
2023-04-13T07:48:18.410Z,2.23
2023-04-13T07:50:47.165Z,1.70
2023-04-13T07:53:15.394Z,2.23
2023-04-13T07:55:43.613Z,2.13
2023-04-13T07:58:13.322Z,2.23
2023-04-13T08:00:41.515Z,1.90
2023-04-13T08:03:09.823Z,2.50
2023-04-13T08:05:38.121Z,2.17
2023-04-13T08:08:06.648Z,3.13
2023-04-13T08:10:34.846Z,1.73
2023-04-13T08:13:03.051Z,2.10
2023-04-13T08:15:32.717Z,2.07
2023-04-13T08:18:01.255Z,2.23
2023-04-13T08:20:30.977Z,2.23
2023-04-13T08:22:59.281Z,1.90
2023-04-13T08:25:28.517Z,2.10
2023-04-13T08:27:57.390Z,1.50
2023-04-13T08:30:25.719Z,2.60
2023-04-13T08:32:55.465Z,1.77
2023-04-13T08:35:23.752Z,2.20
2023-04-13T08:37:52.043Z,1.93
2023-04-13T08:40:21.109Z,1.90
2023-04-13T08:42:49.372Z,2.00
2023-04-13T08:45:17.705Z,2.40
2023-04-13T08:47:46.074Z,1.90
2023-04-13T08:50:16.836Z,2.27
2023-04-13T08:52:45.387Z,1.90
2023-04-13T08:55:15.723Z,2.53
2023-04-13T08:57:44.387Z,2.10
2023-04-13T09:00:16.560Z,2.60
2023-04-13T09:03:00.289Z,2.70
2023-04-13T09:05:34.885Z,2.40
2023-04-13T09:08:04.701Z,2.30
2023-04-13T09:10:33.310Z,1.90
2023-04-13T09:13:01.905Z,2.17
2023-04-13T09:15:30.267Z,2.50
2023-04-13T09:18:07.484Z,2.23
2023-04-13T09:20:37.969Z,2.23
2023-04-13T09:23:14.646Z,2.00
2023-04-13T09:25:43.010Z,1.90
2023-04-13T09:28:18.128Z,2.37
2023-04-13T09:30:46.556Z,1.80
2023-04-13T09:33:15.902Z,2.93
2023-04-13T09:35:45.520Z,2.13
2023-04-13T09:38:15.516Z,1.40
2023-04-13T09:40:50.104Z,1.97
2023-04-13T09:43:18.368Z,1.77
2023-04-13T09:45:46.643Z,2.07
2023-04-13T09:48:18.985Z,2.17
2023-04-13T09:50:59.040Z,1.70
2023-04-13T09:53:28.777Z,2.40
2023-04-13T09:56:00.385Z,2.80
2023-04-13T09:58:29.079Z,2.00
2023-04-13T10:00:58.218Z,1.67
2023-04-13T10:03:27.096Z,1.80
2023-04-13T10:05:59.580Z,1.60
2023-04-13T10:11:01.947Z,1.93
2023-04-13T10:13:33.313Z,1.83
2023-04-13T10:16:10.430Z,1.73
2023-04-13T10:18:47.817Z,2.20
2023-04-13T10:21:17.772Z,1.87
2023-04-13T10:23:46.285Z,1.93
2023-04-13T10:26:14.577Z,2.07
2023-04-13T10:28:43.577Z,2.50
2023-04-13T10:31:11.887Z,2.23
2023-04-13T10:33:49.662Z,1.93
2023-04-13T10:36:19.383Z,2.10
2023-04-13T10:38:48.415Z,1.80
2023-04-13T10:41:25.305Z,2.00
2023-04-13T10:44:02.563Z,2.37
2023-04-13T10:46:30.956Z,2.20
2023-04-13T10:49:00.220Z,2.17
2023-04-13T10:51:40.000Z,2.10
2023-04-13T10:54:08.401Z,2.20
2023-04-13T10:56:36.654Z,2.80
2023-04-13T10:59:05.386Z,2.53
2023-04-13T11:01:34.028Z,1.87
2023-04-13T11:04:06.771Z,2.70
2023-04-13T11:06:40.025Z,2.33
2023-04-13T11:09:12.448Z,1.67
2023-04-13T11:11:43.537Z,1.90
2023-04-13T11:14:19.268Z,1.73
2023-04-13T11:16:49.366Z,2.23
2023-04-13T11:19:18.863Z,2.17
2023-04-13T11:21:54.680Z,2.10
2023-04-13T11:24:27.179Z,2.10
2023-04-13T11:26:55.472Z,2.27
2023-04-13T11:29:23.750Z,2.37
2023-04-13T11:31:52.244Z,1.87
2023-04-13T11:34:28.688Z,2.40
2023-04-13T11:37:03.175Z,2.23
2023-04-13T11:39:32.204Z,1.93
2023-04-13T11:42:06.056Z,2.00
2023-04-13T11:44:35.962Z,2.03
2023-04-13T11:47:04.343Z,1.90
2023-04-13T11:49:32.961Z,2.20
2023-04-13T11:52:02.870Z,1.80
2023-04-13T11:54:31.677Z,2.10
2023-04-13T11:57:00.132Z,1.80
2023-04-13T11:59:29.540Z,1.90
2023-04-13T12:02:02.915Z,2.03
2023-04-13T12:04:38.144Z,1.93
2023-04-13T12:07:13.451Z,1.60
2023-04-13T12:09:55.965Z,2.10
2023-04-13T12:15:13.896Z,2.20
2023-04-13T12:17:58.053Z,2.77
2023-04-13T12:20:36.751Z,2.37
2023-04-13T12:23:15.576Z,2.03
2023-04-13T12:25:57.174Z,1.87
2023-04-13T12:28:32.235Z,1.97
2023-04-13T12:31:05.362Z,2.03
2023-04-13T12:33:33.872Z,2.13
2023-04-13T12:36:02.531Z,1.77
2023-04-13T12:38:33.067Z,2.17
2023-04-13T12:41:02.088Z,1.90
2023-04-13T12:43:30.620Z,2.07
2023-04-13T12:45:58.838Z,2.03
2023-04-13T12:48:27.152Z,2.03
2023-04-13T12:50:56.029Z,2.30
2023-04-13T12:53:24.271Z,2.07
2023-04-13T12:55:53.893Z,1.90
2023-04-13T12:58:22.174Z,2.30
2023-04-13T13:00:50.453Z,1.67
2023-04-13T13:03:18.703Z,1.70
2023-04-13T13:05:46.975Z,2.40
2023-04-13T13:08:15.189Z,2.20
2023-04-13T13:10:44.001Z,1.70
2023-04-13T13:13:17.187Z,2.30
2023-04-13T13:15:45.673Z,1.70
2023-04-13T13:18:14.708Z,2.30
2023-04-13T13:20:42.972Z,1.73
2023-04-13T13:23:11.912Z,2.30
2023-04-13T13:25:50.354Z,2.27
2023-04-13T13:28:32.318Z,1.67
2023-04-13T13:31:00.597Z,3.47
2023-04-13T13:33:28.889Z,2.70
2023-04-13T13:35:57.143Z,1.90
2023-04-13T13:38:25.646Z,2.27
2023-04-13T13:40:53.875Z,1.70
2023-04-13T13:43:22.341Z,1.77
2023-04-13T13:45:51.977Z,2.00
2023-04-13T13:48:21.656Z,2.17
2023-04-13T13:50:50.174Z,2.17
2023-04-13T13:53:18.476Z,1.83
2023-04-13T13:55:46.848Z,2.33
2023-04-13T13:58:15.068Z,2.30
2023-04-13T14:00:43.332Z,1.83
2023-04-13T14:03:13.172Z,2.10
2023-04-13T14:05:43.059Z,2.20
2023-04-13T14:08:11.812Z,2.27
2023-04-13T14:10:41.499Z,2.70
2023-04-13T14:13:10.079Z,2.00
2023-04-13T14:15:38.354Z,1.70
2023-04-13T14:18:10.458Z,2.37
2023-04-13T14:20:41.284Z,2.13
2023-04-13T14:23:10.109Z,2.40
2023-04-13T14:25:40.994Z,3.03
2023-04-13T14:28:11.369Z,2.63
2023-04-13T14:30:40.749Z,2.20
2023-04-13T14:33:09.174Z,1.60
2023-04-13T14:35:38.694Z,2.00
2023-04-13T14:38:09.804Z,2.50
2023-04-13T14:40:38.145Z,2.20
2023-04-13T14:43:06.793Z,2.10
2023-04-13T14:45:35.280Z,2.10
2023-04-13T14:48:03.636Z,2.30
2023-04-13T14:50:32.041Z,2.67
2023-04-13T14:53:00.263Z,2.23
2023-04-13T14:55:29.894Z,2.27
2023-04-13T14:57:59.761Z,1.80
2023-04-13T15:00:38.697Z,2.50
2023-04-13T15:03:08.159Z,2.63
2023-04-13T15:05:40.823Z,1.80
2023-04-13T15:08:11.536Z,2.80
2023-04-13T15:10:42.485Z,2.30
2023-04-13T15:13:10.870Z,2.67
2023-04-13T15:15:40.431Z,2.27
2023-04-13T15:18:09.385Z,2.50
2023-04-13T15:20:37.689Z,2.20
2023-04-13T15:23:06.003Z,2.30
2023-04-13T15:25:34.214Z,2.60
2023-04-13T15:28:03.949Z,2.40
2023-04-13T15:30:32.680Z,2.53
2023-04-13T15:33:02.434Z,1.93
2023-04-13T15:35:31.498Z,2.47
2023-04-13T15:38:02.772Z,2.30
2023-04-13T15:40:32.662Z,2.23
2023-04-13T15:43:00.917Z,2.30
2023-04-13T15:45:30.613Z,2.10
2023-04-13T15:47:59.073Z,2.00
2023-04-13T15:50:28.117Z,2.07
2023-04-13T15:52:57.105Z,2.17
2023-04-13T15:55:25.587Z,1.90
2023-04-13T15:57:54.026Z,2.17
2023-04-13T16:00:22.469Z,1.97
2023-04-13T16:02:52.259Z,1.63
2023-04-13T16:05:20.591Z,2.20
2023-04-13T16:07:48.874Z,2.27
2023-04-13T16:10:17.348Z,2.27
2023-04-13T16:12:45.630Z,2.20
2023-04-13T16:15:14.025Z,1.93
2023-04-13T16:17:44.203Z,2.10
2023-04-13T16:20:21.358Z,1.80
2023-04-13T16:22:53.208Z,2.37
2023-04-13T16:25:21.507Z,2.43
2023-04-13T16:27:50.001Z,2.40
2023-04-13T16:30:20.813Z,2.10
2023-04-13T16:32:50.045Z,2.10
2023-04-13T16:35:19.836Z,1.80
2023-04-13T16:37:48.136Z,2.37
2023-04-13T16:40:16.711Z,2.30
2023-04-13T16:42:45.142Z,2.13
2023-04-13T16:45:15.075Z,2.30
2023-04-13T16:47:43.850Z,2.40
2023-04-13T16:50:13.265Z,2.60
2023-04-13T16:52:42.945Z,2.47
2023-04-13T16:55:14.009Z,2.30
2023-04-13T16:57:42.948Z,2.53
2023-04-13T17:00:12.050Z,2.63
2023-04-13T17:02:41.916Z,2.93
2023-04-13T17:05:11.432Z,2.07
2023-04-13T17:07:40.480Z,2.57
2023-04-13T17:10:12.377Z,1.70
2023-04-13T17:12:40.759Z,2.40
2023-04-13T17:15:10.008Z,2.37
2023-04-13T17:17:38.737Z,2.63
2023-04-13T17:20:08.362Z,2.50
2023-04-13T17:22:36.612Z,3.07
2023-04-13T17:25:04.892Z,2.40
2023-04-13T17:27:34.561Z,2.40
2023-04-13T17:30:02.863Z,2.13
2023-04-13T17:32:31.170Z,2.60
2023-04-13T17:34:59.416Z,2.83
2023-04-13T17:37:29.395Z,2.27
2023-04-13T17:39:57.637Z,2.30
2023-04-13T17:42:26.487Z,2.30
2023-04-13T17:44:56.343Z,2.53
2023-04-13T17:47:25.586Z,2.20
2023-04-13T17:49:53.913Z,2.20
2023-04-13T17:52:22.149Z,2.63
2023-04-13T17:54:50.370Z,2.07
2023-04-13T17:57:18.739Z,2.17
2023-04-13T17:59:47.268Z,1.90
2023-04-13T18:02:17.020Z,2.07
2023-04-13T18:04:45.343Z,2.67
2023-04-13T18:07:14.265Z,2.57
2023-04-13T18:09:42.720Z,2.17
2023-04-13T18:12:11.965Z,2.50
2023-04-13T18:14:40.429Z,2.60
2023-04-13T18:17:08.686Z,2.80
2023-04-13T18:19:38.278Z,2.70
2023-04-13T18:22:06.866Z,3.00
2023-04-13T18:24:35.264Z,2.73
2023-04-13T18:27:03.539Z,2.70
2023-04-13T18:29:31.787Z,3.03
2023-04-13T18:32:00.012Z,3.00
2023-04-13T18:34:31.060Z,2.70
2023-04-13T18:37:00.801Z,2.63
2023-04-13T18:39:29.053Z,2.43
2023-04-13T18:41:57.586Z,2.00
2023-04-13T18:44:25.905Z,2.30
2023-04-13T18:46:54.274Z,2.60
2023-04-13T18:49:22.585Z,2.27
2023-04-13T18:51:50.886Z,1.93
2023-04-13T18:54:20.581Z,2.67
2023-04-13T18:56:48.843Z,2.47
2023-04-13T18:59:17.126Z,2.10
2023-04-13T19:01:45.430Z,2.30
2023-04-13T19:04:14.051Z,1.90
2023-04-13T19:06:42.493Z,2.20
2023-04-13T19:09:10.755Z,2.00
2023-04-13T19:11:53.260Z,1.73
2023-04-13T19:14:21.845Z,1.80
2023-04-13T19:16:52.373Z,2.03
2023-04-13T19:19:20.801Z,2.43
2023-04-13T19:21:49.100Z,1.63
2023-04-13T19:24:17.350Z,1.70
2023-04-13T19:26:45.562Z,1.67
2023-04-13T19:29:15.527Z,1.80
2023-04-13T19:31:45.055Z,1.80
2023-04-13T19:34:13.549Z,1.40
2023-04-13T19:36:42.257Z,1.77
2023-04-13T19:39:11.198Z,1.30
2023-04-13T19:41:40.866Z,1.17
2023-04-13T19:44:09.929Z,1.43
2023-04-13T19:46:39.547Z,1.20
2023-04-13T19:49:07.904Z,1.80
2023-04-13T19:51:36.391Z,1.60
2023-04-13T19:54:05.221Z,1.43
2023-04-13T19:56:35.445Z,1.57
2023-04-13T19:59:05.144Z,1.60
2023-04-13T20:01:33.877Z,1.50
2023-04-13T20:04:05.028Z,1.70
2023-04-13T20:06:34.218Z,1.60
2023-04-13T20:09:09.254Z,2.20
2023-04-13T20:11:37.494Z,1.90
2023-04-13T20:14:05.950Z,1.93
2023-04-13T20:16:35.404Z,1.80
2023-04-13T20:19:06.713Z,1.77
2023-04-13T20:21:34.980Z,1.77
2023-04-13T20:24:03.571Z,1.90
2023-04-13T20:26:32.512Z,2.03
2023-04-13T20:29:01.645Z,2.00
2023-04-13T20:31:30.378Z,2.00
2023-04-13T20:33:59.037Z,1.70
2023-04-13T20:36:28.841Z,2.13
2023-04-13T20:38:59.386Z,2.07
2023-04-13T20:41:29.762Z,2.07
2023-04-13T20:43:58.779Z,2.73
2023-04-13T20:46:34.927Z,2.40
2023-04-13T20:49:04.407Z,2.30
2023-04-13T20:51:34.340Z,2.57
2023-04-13T20:54:05.558Z,2.30
2023-04-13T20:56:34.275Z,2.33
2023-04-13T20:59:03.297Z,1.90
2023-04-13T21:01:31.754Z,2.13
2023-04-13T21:04:00.304Z,1.97
2023-04-13T21:06:29.922Z,1.93
2023-04-13T21:08:59.825Z,2.37
2023-04-13T21:11:28.135Z,2.07
2023-04-13T21:13:56.576Z,2.13
2023-04-13T21:16:26.547Z,1.90
2023-04-13T21:18:55.157Z,1.70
2023-04-13T21:21:25.016Z,1.87
2023-04-13T21:23:54.387Z,1.93
2023-04-13T21:26:23.992Z,1.80
2023-04-13T21:28:52.288Z,2.20
2023-04-13T21:31:20.557Z,1.73
2023-04-13T21:33:48.862Z,1.70
2023-04-13T21:38:48.347Z,1.93
2023-04-13T21:41:16.762Z,2.17
2023-04-13T21:43:46.432Z,2.10
2023-04-13T21:46:15.486Z,1.83
2023-04-13T21:48:43.965Z,2.17
2023-04-13T21:51:12.272Z,1.97
2023-04-13T21:53:40.800Z,1.70
2023-04-13T21:56:09.313Z,2.00
2023-04-13T21:58:41.638Z,2.53
2023-04-13T22:01:12.854Z,2.87
2023-04-13T22:03:42.154Z,3.20
2023-04-13T22:06:11.877Z,3.30
2023-04-13T22:08:40.389Z,4.20
2023-04-13T22:11:09.038Z,3.63
2023-04-13T22:13:37.322Z,4.50
2023-04-13T22:16:05.754Z,4.40
2023-04-13T22:18:35.456Z,3.50
2023-04-13T22:21:03.740Z,3.27
2023-04-13T22:23:31.981Z,3.17
2023-04-13T22:26:01.655Z,2.80
2023-04-13T22:28:30.983Z,3.07
2023-04-13T22:30:59.263Z,3.20
2023-04-13T22:33:31.665Z,2.67
2023-04-13T22:36:01.531Z,2.30
2023-04-13T22:38:29.754Z,2.20
2023-04-13T22:40:57.951Z,2.70
2023-04-13T22:43:26.448Z,2.20
2023-04-13T22:46:00.585Z,2.40
2023-04-13T22:48:29.339Z,2.40
2023-04-13T22:51:00.356Z,1.97
2023-04-13T22:53:30.266Z,2.23
2023-04-13T22:55:59.288Z,2.07
2023-04-13T22:58:27.704Z,2.20
2023-04-13T23:00:56.071Z,2.20
2023-04-13T23:03:24.474Z,2.10
2023-04-13T23:05:52.965Z,1.93
2023-04-13T23:08:21.447Z,2.90
2023-04-13T23:10:51.196Z,2.17
2023-04-13T23:13:19.441Z,2.50
2023-04-13T23:15:47.702Z,2.20
2023-04-13T23:18:16.140Z,1.93
2023-04-13T23:20:44.372Z,2.07
2023-04-13T23:23:12.603Z,2.20
2023-04-13T23:25:40.843Z,3.10
2023-04-13T23:28:10.465Z,1.90
2023-04-13T23:30:38.748Z,2.33
2023-04-13T23:33:07.019Z,2.10
2023-04-13T23:35:35.346Z,2.30
2023-04-13T23:38:03.749Z,2.47
2023-04-13T23:40:31.938Z,2.07
2023-04-13T23:43:00.316Z,1.90
2023-04-13T23:45:30.026Z,1.80
2023-04-13T23:47:58.365Z,2.17
2023-04-13T23:50:26.705Z,2.13
2023-04-13T23:52:54.929Z,2.13
2023-04-13T23:55:23.276Z,1.80
2023-04-13T23:57:51.472Z,2.00
